sensor_id;sensor_type;location;lat;lon;timestamp;pressure;altitude;pressure_sealevel;temperature;humidity
74529;BME280;63009;52.584;5.932;2022-11-09T00:01:38;100531.22;;;12.89;83.56
74529;BME280;63009;52.584;5.932;2022-11-09T00:04:05;100534.59;;;12.91;83.49
74529;BME280;63009;52.584;5.932;2022-11-09T00:06:31;100515.72;;;12.96;82.99
74529;BME280;63009;52.584;5.932;2022-11-09T00:08:57;100519.59;;;13.03;82.68
74529;BME280;63009;52.584;5.932;2022-11-09T00:11:23;100517.91;;;13.02;82.74
74529;BME280;63009;52.584;5.932;2022-11-09T00:13:49;100527.56;;;13.03;82.96
74529;BME280;63009;52.584;5.932;2022-11-09T00:16:16;100522.97;;;13.05;82.52
74529;BME280;63009;52.584;5.932;2022-11-09T00:18:42;100532.63;;;13.06;82.72
74529;BME280;63009;52.584;5.932;2022-11-09T00:21:20;100524.78;;;13.04;82.62
74529;BME280;63009;52.584;5.932;2022-11-09T00:23:46;100528.75;;;12.99;83.18
74529;BME280;63009;52.584;5.932;2022-11-09T00:26:13;100513.38;;;12.91;82.82
74529;BME280;63009;52.584;5.932;2022-11-09T00:28:39;100513.84;;;12.85;83.08
74529;BME280;63009;52.584;5.932;2022-11-09T00:31:08;100519.53;;;12.92;83.04
74529;BME280;63009;52.584;5.932;2022-11-09T00:33:34;100519.16;;;12.85;83.02
74529;BME280;63009;52.584;5.932;2022-11-09T00:36:08;100524.44;;;12.85;83.50
74529;BME280;63009;52.584;5.932;2022-11-09T00:38:35;100532.28;;;12.87;83.28
74529;BME280;63009;52.584;5.932;2022-11-09T00:41:02;100528.69;;;12.88;83.23
74529;BME280;63009;52.584;5.932;2022-11-09T00:43:27;100530.38;;;12.89;83.06
74529;BME280;63009;52.584;5.932;2022-11-09T00:45:52;100535.44;;;12.92;83.27
74529;BME280;63009;52.584;5.932;2022-11-09T00:48:17;100533.97;;;12.88;83.15
74529;BME280;63009;52.584;5.932;2022-11-09T00:50:50;100518.06;;;12.88;83.04
74529;BME280;63009;52.584;5.932;2022-11-09T00:53:17;100533.69;;;13.03;82.56
74529;BME280;63009;52.584;5.932;2022-11-09T00:55:42;100531.66;;;13.07;82.18
74529;BME280;63009;52.584;5.932;2022-11-09T00:58:08;100513.94;;;13.07;81.95
74529;BME280;63009;52.584;5.932;2022-11-09T01:00:33;100523.94;;;13.04;82.14
74529;BME280;63009;52.584;5.932;2022-11-09T01:02:58;100513.16;;;12.94;82.33
74529;BME280;63009;52.584;5.932;2022-11-09T01:05:23;100524.09;;;12.90;82.93
74529;BME280;63009;52.584;5.932;2022-11-09T01:07:49;100526.53;;;12.93;82.38
74529;BME280;63009;52.584;5.932;2022-11-09T01:10:14;100525.28;;;12.86;82.70
74529;BME280;63009;52.584;5.932;2022-11-09T01:12:39;100524.22;;;12.88;82.74
74529;BME280;63009;52.584;5.932;2022-11-09T01:15:05;100535.44;;;12.92;82.49
74529;BME280;63009;52.584;5.932;2022-11-09T01:17:30;100532.47;;;12.96;82.46
74529;BME280;63009;52.584;5.932;2022-11-09T01:19:56;100532.84;;;13.03;82.13
74529;BME280;63009;52.584;5.932;2022-11-09T01:22:21;100527.66;;;13.01;82.30
74529;BME280;63009;52.584;5.932;2022-11-09T01:24:46;100530.88;;;12.94;82.39
74529;BME280;63009;52.584;5.932;2022-11-09T01:27:11;100535.00;;;12.98;81.98
74529;BME280;63009;52.584;5.932;2022-11-09T01:29:37;100524.84;;;12.92;82.33
74529;BME280;63009;52.584;5.932;2022-11-09T01:32:03;100537.25;;;12.91;82.62
74529;BME280;63009;52.584;5.932;2022-11-09T01:34:28;100530.72;;;12.84;82.26
74529;BME280;63009;52.584;5.932;2022-11-09T01:36:54;100519.38;;;12.82;82.38
74529;BME280;63009;52.584;5.932;2022-11-09T01:39:19;100529.69;;;12.74;82.81
74529;BME280;63009;52.584;5.932;2022-11-09T01:41:45;100528.44;;;12.67;82.81
74529;BME280;63009;52.584;5.932;2022-11-09T01:44:14;100519.41;;;12.69;82.29
74529;BME280;63009;52.584;5.932;2022-11-09T01:46:47;100512.00;;;12.62;82.67
74529;BME280;63009;52.584;5.932;2022-11-09T01:51:55;100524.88;;;12.55;83.13
74529;BME280;63009;52.584;5.932;2022-11-09T01:54:28;100526.13;;;12.49;83.43
74529;BME280;63009;52.584;5.932;2022-11-09T01:56:59;100520.75;;;12.38;83.82
74529;BME280;63009;52.584;5.932;2022-11-09T01:59:30;100512.91;;;12.37;83.42
74529;BME280;63009;52.584;5.932;2022-11-09T02:01:57;100518.19;;;12.37;83.50
74529;BME280;63009;52.584;5.932;2022-11-09T02:04:29;100526.16;;;12.37;83.51
74529;BME280;63009;52.584;5.932;2022-11-09T02:06:56;100524.34;;;12.37;83.23
74529;BME280;63009;52.584;5.932;2022-11-09T02:09:47;100518.84;;;12.40;83.19
74529;BME280;63009;52.584;5.932;2022-11-09T02:12:14;100514.09;;;12.33;83.31
74529;BME280;63009;52.584;5.932;2022-11-09T02:14:42;100528.81;;;12.37;83.21
74529;BME280;63009;52.584;5.932;2022-11-09T02:17:08;100533.91;;;12.40;82.73
74529;BME280;63009;52.584;5.932;2022-11-09T02:19:33;100525.63;;;12.32;82.58
74529;BME280;63009;52.584;5.932;2022-11-09T02:21:59;100528.06;;;12.22;83.49
74529;BME280;63009;52.584;5.932;2022-11-09T02:24:25;100541.03;;;12.27;83.06
74529;BME280;63009;52.584;5.932;2022-11-09T02:26:52;100546.00;;;12.18;83.42
74529;BME280;63009;52.584;5.932;2022-11-09T02:29:20;100528.94;;;12.10;83.77
74529;BME280;63009;52.584;5.932;2022-11-09T02:31:51;100540.81;;;12.04;84.07
74529;BME280;63009;52.584;5.932;2022-11-09T02:34:19;100529.47;;;12.02;83.96
74529;BME280;63009;52.584;5.932;2022-11-09T02:36:45;100534.16;;;11.99;84.35
74529;BME280;63009;52.584;5.932;2022-11-09T02:39:13;100534.16;;;11.99;83.93
74529;BME280;63009;52.584;5.932;2022-11-09T02:41:41;100533.41;;;11.97;84.04
74529;BME280;63009;52.584;5.932;2022-11-09T02:44:08;100526.50;;;11.94;83.88
74529;BME280;63009;52.584;5.932;2022-11-09T02:46:35;100532.34;;;11.99;83.67
74529;BME280;63009;52.584;5.932;2022-11-09T02:49:01;100519.28;;;11.96;84.19
74529;BME280;63009;52.584;5.932;2022-11-09T02:51:27;100527.47;;;11.93;83.98
74529;BME280;63009;52.584;5.932;2022-11-09T02:53:52;100524.50;;;11.98;83.68
74529;BME280;63009;52.584;5.932;2022-11-09T02:56:17;100525.47;;;11.97;83.54
74529;BME280;63009;52.584;5.932;2022-11-09T02:58:43;100531.81;;;11.94;83.76
74529;BME280;63009;52.584;5.932;2022-11-09T03:01:08;100521.00;;;11.84;83.85
74529;BME280;63009;52.584;5.932;2022-11-09T03:03:34;100536.06;;;11.84;84.36
74529;BME280;63009;52.584;5.932;2022-11-09T03:05:59;100517.88;;;11.78;84.46
74529;BME280;63009;52.584;5.932;2022-11-09T03:08:24;100531.44;;;11.73;84.95
74529;BME280;63009;52.584;5.932;2022-11-09T03:10:50;100545.44;;;11.75;84.99
74529;BME280;63009;52.584;5.932;2022-11-09T03:13:15;100534.22;;;11.72;85.21
74529;BME280;63009;52.584;5.932;2022-11-09T03:15:40;100526.06;;;11.75;85.15
74529;BME280;63009;52.584;5.932;2022-11-09T03:18:06;100526.69;;;11.78;84.99
74529;BME280;63009;52.584;5.932;2022-11-09T03:20:31;100529.53;;;11.75;85.09
74529;BME280;63009;52.584;5.932;2022-11-09T03:22:58;100544.53;;;11.89;84.58
74529;BME280;63009;52.584;5.932;2022-11-09T03:25:24;100542.94;;;11.86;84.76
74529;BME280;63009;52.584;5.932;2022-11-09T03:27:49;100507.78;;;11.84;84.73
74529;BME280;63009;52.584;5.932;2022-11-09T03:30:15;100516.00;;;11.80;85.42
74529;BME280;63009;52.584;5.932;2022-11-09T03:32:43;100521.88;;;11.85;85.21
74529;BME280;63009;52.584;5.932;2022-11-09T03:35:08;100526.72;;;11.91;85.31
74529;BME280;63009;52.584;5.932;2022-11-09T03:37:33;100522.38;;;11.90;85.44
74529;BME280;63009;52.584;5.932;2022-11-09T03:39:59;100537.63;;;11.86;85.87
74529;BME280;63009;52.584;5.932;2022-11-09T03:42:24;100521.44;;;11.91;85.69
74529;BME280;63009;52.584;5.932;2022-11-09T03:44:49;100520.16;;;11.84;85.91
74529;BME280;63009;52.584;5.932;2022-11-09T03:47:14;100519.50;;;11.80;85.87
74529;BME280;63009;52.584;5.932;2022-11-09T03:49:40;100528.84;;;11.86;85.94
74529;BME280;63009;52.584;5.932;2022-11-09T03:52:05;100520.28;;;11.82;85.81
74529;BME280;63009;52.584;5.932;2022-11-09T03:54:30;100527.78;;;11.88;85.74
74529;BME280;63009;52.584;5.932;2022-11-09T03:56:55;100532.13;;;11.89;85.77
74529;BME280;63009;52.584;5.932;2022-11-09T03:59:21;100533.09;;;11.88;85.76
74529;BME280;63009;52.584;5.932;2022-11-09T04:01:46;100527.91;;;11.87;85.90
74529;BME280;63009;52.584;5.932;2022-11-09T04:04:12;100534.56;;;11.93;85.63
74529;BME280;63009;52.584;5.932;2022-11-09T04:06:37;100534.34;;;11.96;85.62
74529;BME280;63009;52.584;5.932;2022-11-09T04:09:02;100525.25;;;11.87;85.98
74529;BME280;63009;52.584;5.932;2022-11-09T04:11:28;100535.41;;;11.93;85.95
74529;BME280;63009;52.584;5.932;2022-11-09T04:13:53;100551.50;;;11.90;86.16
74529;BME280;63009;52.584;5.932;2022-11-09T04:16:18;100547.22;;;11.75;86.67
74529;BME280;63009;52.584;5.932;2022-11-09T04:18:43;100547.34;;;11.73;86.56
74529;BME280;63009;52.584;5.932;2022-11-09T04:21:09;100563.84;;;11.77;86.63
74529;BME280;63009;52.584;5.932;2022-11-09T04:23:34;100573.81;;;11.73;86.87
74529;BME280;63009;52.584;5.932;2022-11-09T04:25:59;100584.31;;;11.75;86.73
74529;BME280;63009;52.584;5.932;2022-11-09T04:28:25;100582.38;;;11.64;87.33
74529;BME280;63009;52.584;5.932;2022-11-09T04:30:50;100584.38;;;11.60;87.58
74529;BME280;63009;52.584;5.932;2022-11-09T04:33:16;100605.03;;;11.55;87.71
74529;BME280;63009;52.584;5.932;2022-11-09T04:35:41;100598.41;;;11.48;87.84
74529;BME280;63009;52.584;5.932;2022-11-09T04:38:10;100594.72;;;11.51;87.80
74529;BME280;63009;52.584;5.932;2022-11-09T04:40:36;100606.72;;;11.56;88.04
74529;BME280;63009;52.584;5.932;2022-11-09T04:43:04;100593.03;;;11.50;88.00
74529;BME280;63009;52.584;5.932;2022-11-09T04:45:31;100609.75;;;11.50;88.14
74529;BME280;63009;52.584;5.932;2022-11-09T04:48:01;100606.03;;;11.53;88.32
74529;BME280;63009;52.584;5.932;2022-11-09T04:50:28;100611.66;;;11.48;88.36
74529;BME280;63009;52.584;5.932;2022-11-09T04:52:53;100610.59;;;11.51;88.20
74529;BME280;63009;52.584;5.932;2022-11-09T04:55:19;100616.84;;;11.50;88.15
74529;BME280;63009;52.584;5.932;2022-11-09T04:57:44;100612.16;;;11.41;88.69
74529;BME280;63009;52.584;5.932;2022-11-09T05:00:10;100618.38;;;11.40;88.81
74529;BME280;63009;52.584;5.932;2022-11-09T05:02:35;100605.25;;;11.38;88.80
74529;BME280;63009;52.584;5.932;2022-11-09T05:05:00;100603.56;;;11.37;88.54
74529;BME280;63009;52.584;5.932;2022-11-09T05:07:25;100614.25;;;11.36;88.41
74529;BME280;63009;52.584;5.932;2022-11-09T05:09:51;100620.38;;;11.36;88.49
74529;BME280;63009;52.584;5.932;2022-11-09T05:12:16;100601.47;;;11.42;88.12
74529;BME280;63009;52.584;5.932;2022-11-09T05:14:41;100603.72;;;11.48;87.95
74529;BME280;63009;52.584;5.932;2022-11-09T05:17:06;100598.00;;;11.42;87.83
74529;BME280;63009;52.584;5.932;2022-11-09T05:19:33;100602.31;;;11.43;87.72
74529;BME280;63009;52.584;5.932;2022-11-09T05:21:58;100611.13;;;11.43;87.54
74529;BME280;63009;52.584;5.932;2022-11-09T05:24:44;100605.63;;;11.46;87.41
74529;BME280;63009;52.584;5.932;2022-11-09T05:27:09;100617.59;;;11.52;87.05
74529;BME280;63009;52.584;5.932;2022-11-09T05:29:34;100609.84;;;11.49;87.01
74529;BME280;63009;52.584;5.932;2022-11-09T05:31:59;100610.69;;;11.49;87.00
74529;BME280;63009;52.584;5.932;2022-11-09T05:34:25;100608.00;;;11.37;86.92
74529;BME280;63009;52.584;5.932;2022-11-09T05:36:50;100610.66;;;11.37;87.14
74529;BME280;63009;52.584;5.932;2022-11-09T05:39:15;100622.28;;;11.34;87.12
74529;BME280;63009;52.584;5.932;2022-11-09T05:41:40;100617.41;;;11.28;87.32
74529;BME280;63009;52.584;5.932;2022-11-09T05:44:06;100625.25;;;11.29;87.36
74529;BME280;63009;52.584;5.932;2022-11-09T05:46:31;100610.50;;;11.25;87.41
74529;BME280;63009;52.584;5.932;2022-11-09T05:48:58;100615.41;;;11.32;86.98
74529;BME280;63009;52.584;5.932;2022-11-09T05:51:23;100625.78;;;11.35;87.04
74529;BME280;63009;52.584;5.932;2022-11-09T05:53:48;100612.13;;;11.28;87.20
74529;BME280;63009;52.584;5.932;2022-11-09T05:56:33;100611.06;;;11.30;86.69
74529;BME280;63009;52.584;5.932;2022-11-09T05:58:59;100614.19;;;11.23;86.82
74529;BME280;63009;52.584;5.932;2022-11-09T06:01:24;100623.72;;;11.25;86.48
74529;BME280;63009;52.584;5.932;2022-11-09T06:03:52;100627.63;;;11.20;87.31
74529;BME280;63009;52.584;5.932;2022-11-09T06:06:17;100634.31;;;11.25;86.78
74529;BME280;63009;52.584;5.932;2022-11-09T06:08:43;100627.63;;;11.20;87.08
74529;BME280;63009;52.584;5.932;2022-11-09T06:11:09;100639.06;;;11.20;87.16
74529;BME280;63009;52.584;5.932;2022-11-09T06:13:35;100635.56;;;11.20;87.38
74529;BME280;63009;52.584;5.932;2022-11-09T06:16:02;100636.34;;;11.08;87.20
74529;BME280;63009;52.584;5.932;2022-11-09T06:18:29;100640.94;;;11.18;86.81
74529;BME280;63009;52.584;5.932;2022-11-09T06:20:57;100644.84;;;11.13;87.05
74529;BME280;63009;52.584;5.932;2022-11-09T06:23:23;100636.13;;;11.11;87.11
74529;BME280;63009;52.584;5.932;2022-11-09T06:25:56;100640.41;;;11.13;86.74
74529;BME280;63009;52.584;5.932;2022-11-09T06:28:21;100639.56;;;11.13;86.81
74529;BME280;63009;52.584;5.932;2022-11-09T06:30:46;100634.06;;;11.16;86.67
74529;BME280;63009;52.584;5.932;2022-11-09T06:33:12;100632.84;;;11.07;87.20
74529;BME280;63009;52.584;5.932;2022-11-09T06:35:37;100651.25;;;11.09;87.25
74529;BME280;63009;52.584;5.932;2022-11-09T06:38:02;100636.09;;;10.98;87.43
74529;BME280;63009;52.584;5.932;2022-11-09T06:40:28;100642.22;;;10.98;87.69
74529;BME280;63009;52.584;5.932;2022-11-09T06:42:57;100656.19;;;11.00;87.51
74529;BME280;63009;52.584;5.932;2022-11-09T06:45:23;100656.56;;;10.94;87.88
74529;BME280;63009;52.584;5.932;2022-11-09T06:47:49;100664.88;;;11.03;88.00
74529;BME280;63009;52.584;5.932;2022-11-09T06:50:14;100665.44;;;10.93;88.28
74529;BME280;63009;52.584;5.932;2022-11-09T06:52:39;100657.63;;;10.92;88.27
74529;BME280;63009;52.584;5.932;2022-11-09T06:55:05;100673.19;;;10.96;88.21
74529;BME280;63009;52.584;5.932;2022-11-09T06:57:32;100673.59;;;10.90;88.51
74529;BME280;63009;52.584;5.932;2022-11-09T06:59:57;100669.59;;;10.83;89.15
74529;BME280;63009;52.584;5.932;2022-11-09T07:02:24;100669.59;;;10.83;89.09
74529;BME280;63009;52.584;5.932;2022-11-09T07:04:52;100674.44;;;10.91;88.90
74529;BME280;63009;52.584;5.932;2022-11-09T07:07:18;100678.47;;;10.96;89.08
74529;BME280;63009;52.584;5.932;2022-11-09T07:09:43;100677.16;;;10.89;88.89
74529;BME280;63009;52.584;5.932;2022-11-09T07:12:08;100673.47;;;10.92;88.70
74529;BME280;63009;52.584;5.932;2022-11-09T07:14:34;100685.56;;;10.96;88.64
74529;BME280;63009;52.584;5.932;2022-11-09T07:17:00;100682.75;;;10.99;88.61
74529;BME280;63009;52.584;5.932;2022-11-09T07:19:27;100678.31;;;10.99;88.53
74529;BME280;63009;52.584;5.932;2022-11-09T07:21:52;100682.16;;;11.08;88.21
74529;BME280;63009;52.584;5.932;2022-11-09T07:24:17;100684.25;;;11.03;88.29
74529;BME280;63009;52.584;5.932;2022-11-09T07:26:43;100686.31;;;11.12;87.85
74529;BME280;63009;52.584;5.932;2022-11-09T07:29:08;100687.31;;;11.24;87.64
74529;BME280;63009;52.584;5.932;2022-11-09T07:31:33;100689.84;;;11.25;87.65
74529;BME280;63009;52.584;5.932;2022-11-09T07:33:58;100699.13;;;11.33;87.38
74529;BME280;63009;52.584;5.932;2022-11-09T07:36:28;100700.63;;;11.37;87.17
74529;BME280;63009;52.584;5.932;2022-11-09T07:38:54;100702.78;;;11.44;86.84
74529;BME280;63009;52.584;5.932;2022-11-09T07:41:19;100699.53;;;11.53;86.41
74529;BME280;63009;52.584;5.932;2022-11-09T07:43:44;100694.34;;;11.52;86.55
74529;BME280;63009;52.584;5.932;2022-11-09T07:46:09;100696.34;;;11.48;86.88
74529;BME280;63009;52.584;5.932;2022-11-09T07:48:35;100688.88;;;11.55;86.78
74529;BME280;63009;52.584;5.932;2022-11-09T07:51:01;100696.84;;;11.68;86.38
74529;BME280;63009;52.584;5.932;2022-11-09T07:53:26;100689.19;;;11.63;85.96
74529;BME280;63009;52.584;5.932;2022-11-09T07:56:02;100710.63;;;11.73;86.28
74529;BME280;63009;52.584;5.932;2022-11-09T07:58:28;100703.06;;;11.81;86.11
74529;BME280;63009;52.584;5.932;2022-11-09T08:00:54;100711.78;;;11.96;85.67
74529;BME280;63009;52.584;5.932;2022-11-09T08:03:20;100711.19;;;12.05;85.19
74529;BME280;63009;52.584;5.932;2022-11-09T08:05:47;100710.13;;;12.07;85.09
74529;BME280;63009;52.584;5.932;2022-11-09T08:08:12;100711.50;;;12.00;85.16
74529;BME280;63009;52.584;5.932;2022-11-09T08:10:39;100707.28;;;11.98;85.00
74529;BME280;63009;52.584;5.932;2022-11-09T08:13:10;100702.06;;;12.09;84.83
74529;BME280;63009;52.584;5.932;2022-11-09T08:15:38;100706.03;;;12.16;84.56
74529;BME280;63009;52.584;5.932;2022-11-09T08:18:08;100704.56;;;12.25;84.31
74529;BME280;63009;52.584;5.932;2022-11-09T08:20:34;100710.81;;;12.36;83.88
74529;BME280;63009;52.584;5.932;2022-11-09T08:23:00;100704.78;;;12.34;84.27
74529;BME280;63009;52.584;5.932;2022-11-09T08:25:25;100708.28;;;12.35;83.98
74529;BME280;63009;52.584;5.932;2022-11-09T08:27:51;100705.84;;;12.32;84.27
74529;BME280;63009;52.584;5.932;2022-11-09T08:30:19;100709.03;;;12.37;84.14
74529;BME280;63009;52.584;5.932;2022-11-09T08:32:46;100714.22;;;12.38;84.06
74529;BME280;63009;52.584;5.932;2022-11-09T08:35:13;100714.31;;;12.37;84.10
74529;BME280;63009;52.584;5.932;2022-11-09T08:37:45;100723.34;;;12.34;84.40
74529;BME280;63009;52.584;5.932;2022-11-09T08:40:11;100725.78;;;12.25;84.22
74529;BME280;63009;52.584;5.932;2022-11-09T08:42:37;100723.66;;;12.30;84.43
74529;BME280;63009;52.584;5.932;2022-11-09T08:45:02;100725.97;;;12.34;83.80
74529;BME280;63009;52.584;5.932;2022-11-09T08:47:28;100719.72;;;12.35;84.29
74529;BME280;63009;52.584;5.932;2022-11-09T08:49:53;100723.56;;;12.44;83.75
74529;BME280;63009;52.584;5.932;2022-11-09T08:52:19;100737.66;;;12.44;83.55
74529;BME280;63009;52.584;5.932;2022-11-09T08:54:44;100730.78;;;12.42;83.88
74529;BME280;63009;52.584;5.932;2022-11-09T08:57:09;100741.06;;;12.46;83.69
74529;BME280;63009;52.584;5.932;2022-11-09T08:59:35;100728.66;;;12.47;84.18
74529;BME280;63009;52.584;5.932;2022-11-09T09:02:00;100741.06;;;12.46;84.42
74529;BME280;63009;52.584;5.932;2022-11-09T09:04:26;100729.28;;;12.51;84.25
74529;BME280;63009;52.584;5.932;2022-11-09T09:06:51;100738.09;;;12.64;84.05
74529;BME280;63009;52.584;5.932;2022-11-09T09:09:17;100737.03;;;12.66;83.37
74529;BME280;63009;52.584;5.932;2022-11-09T09:11:42;100746.69;;;12.80;82.98
74529;BME280;63009;52.584;5.932;2022-11-09T09:14:07;100733.66;;;12.77;83.26
74529;BME280;63009;52.584;5.932;2022-11-09T09:16:33;100745.09;;;12.77;82.07
74529;BME280;63009;52.584;5.932;2022-11-09T09:18:58;100735.69;;;12.73;83.29
74529;BME280;63009;52.584;5.932;2022-11-09T09:21:23;100741.41;;;12.67;83.07
74529;BME280;63009;52.584;5.932;2022-11-09T09:23:49;100750.94;;;12.70;83.21
74529;BME280;63009;52.584;5.932;2022-11-09T09:26:15;100747.63;;;12.66;83.58
74529;BME280;63009;52.584;5.932;2022-11-09T09:28:40;100750.50;;;12.63;83.24
74529;BME280;63009;52.584;5.932;2022-11-09T09:31:06;100768.13;;;12.64;83.17
74529;BME280;63009;52.584;5.932;2022-11-09T09:33:32;100763.75;;;12.63;83.52
74529;BME280;63009;52.584;5.932;2022-11-09T09:35:58;100754.97;;;12.63;82.31
74529;BME280;63009;52.584;5.932;2022-11-09T09:38:27;100745.09;;;12.65;82.78
74529;BME280;63009;52.584;5.932;2022-11-09T09:41:03;100749.56;;;12.77;82.74
74529;BME280;63009;52.584;5.932;2022-11-09T09:43:36;100749.91;;;12.85;82.20
74529;BME280;63009;52.584;5.932;2022-11-09T09:46:05;100758.47;;;12.89;82.05
74529;BME280;63009;52.584;5.932;2022-11-09T09:48:42;100761.75;;;12.92;82.24
74529;BME280;63009;52.584;5.932;2022-11-09T09:51:18;100768.88;;;12.92;81.88
74529;BME280;63009;52.584;5.932;2022-11-09T09:53:56;100776.09;;;12.90;81.51
74529;BME280;63009;52.584;5.932;2022-11-09T09:56:27;100772.19;;;12.83;81.87
74529;BME280;63009;52.584;5.932;2022-11-09T09:59:02;100785.44;;;12.83;81.71
74529;BME280;63009;52.584;5.932;2022-11-09T10:01:42;100781.38;;;12.77;82.65
74529;BME280;63009;52.584;5.932;2022-11-09T10:04:20;100777.78;;;12.91;82.48
74529;BME280;63009;52.584;5.932;2022-11-09T10:07:04;100780.22;;;12.94;81.56
74529;BME280;63009;52.584;5.932;2022-11-09T10:15:10;100793.28;;;12.84;81.65
74529;BME280;63009;52.584;5.932;2022-11-09T10:23:24;100797.22;;;13.04;81.67
74529;BME280;63009;52.584;5.932;2022-11-09T10:26:03;100789.91;;;13.20;81.69
74529;BME280;63009;52.584;5.932;2022-11-09T10:28:29;100792.66;;;13.19;80.73
74529;BME280;63009;52.584;5.932;2022-11-09T10:30:56;100779.19;;;13.09;80.75
74529;BME280;63009;52.584;5.932;2022-11-09T10:33:23;100793.19;;;13.11;80.79
74529;BME280;63009;52.584;5.932;2022-11-09T10:36:02;100785.63;;;13.05;81.67
74529;BME280;63009;52.584;5.932;2022-11-09T10:38:46;100787.22;;;13.07;81.15
74529;BME280;63009;52.584;5.932;2022-11-09T10:41:25;100786.72;;;13.02;81.22
74529;BME280;63009;52.584;5.932;2022-11-09T10:43:52;100789.47;;;13.01;81.24
74529;BME280;63009;52.584;5.932;2022-11-09T10:46:17;100795.09;;;12.96;80.94
74529;BME280;63009;52.584;5.932;2022-11-09T10:48:42;100787.66;;;13.01;81.07
74529;BME280;63009;52.584;5.932;2022-11-09T10:51:30;100798.72;;;12.95;80.73
74529;BME280;63009;52.584;5.932;2022-11-09T10:54:36;100788.50;;;12.89;80.91
74529;BME280;63009;52.584;5.932;2022-11-09T10:59:39;100794.56;;;12.91;81.06
74529;BME280;63009;52.584;5.932;2022-11-09T11:02:43;100794.03;;;12.86;80.89
74529;BME280;63009;52.584;5.932;2022-11-09T11:07:41;100792.34;;;12.85;80.90
74529;BME280;63009;52.584;5.932;2022-11-09T11:13:23;100783.53;;;12.85;81.16
74529;BME280;63009;52.584;5.932;2022-11-09T11:15:42;100787.13;;;12.84;81.03
74529;BME280;63009;52.584;5.932;2022-11-09T11:18:24;100798.28;;;12.89;80.42
74529;BME280;63009;52.584;5.932;2022-11-09T11:21:12;100791.59;;;12.96;80.03
74529;BME280;63009;52.584;5.932;2022-11-09T11:23:38;100784.56;;;12.95;80.17
74529;BME280;63009;52.584;5.932;2022-11-09T11:26:25;100793.28;;;12.97;80.59
74529;BME280;63009;52.584;5.932;2022-11-09T11:28:57;100785.44;;;12.95;80.77
74529;BME280;63009;52.584;5.932;2022-11-09T11:31:23;100767.72;;;12.96;81.49
74529;BME280;63009;52.584;5.932;2022-11-09T11:33:49;100781.84;;;13.09;80.98
74529;BME280;63009;52.584;5.932;2022-11-09T11:36:32;100776.19;;;13.14;79.46
74529;BME280;63009;52.584;5.932;2022-11-09T11:42:00;100784.91;;;13.28;78.33
74529;BME280;63009;52.584;5.932;2022-11-09T11:47:24;100773.56;;;13.26;78.68
74529;BME280;63009;52.584;5.932;2022-11-09T11:50:09;100778.53;;;13.31;78.97
74529;BME280;63009;52.584;5.932;2022-11-09T11:52:53;100764.41;;;13.43;77.76
74529;BME280;63009;52.584;5.932;2022-11-09T11:55:41;100755.03;;;13.50;77.51
74529;BME280;63009;52.584;5.932;2022-11-09T12:01:15;100768.53;;;13.84;76.42
74529;BME280;63009;52.584;5.932;2022-11-09T12:03:55;100770.59;;;13.91;75.76
74529;BME280;63009;52.584;5.932;2022-11-09T12:17:26;100769.06;;;13.52;73.24
74529;BME280;63009;52.584;5.932;2022-11-09T12:25:50;100780.22;;;13.32;73.29
74529;BME280;63009;52.584;5.932;2022-11-09T12:36:01;100778.66;;;13.29;73.92
74529;BME280;63009;52.584;5.932;2022-11-09T12:38:36;100764.41;;;13.30;73.31
74529;BME280;63009;52.584;5.932;2022-11-09T12:41:10;100780.56;;;13.27;73.89
74529;BME280;63009;52.584;5.932;2022-11-09T12:43:48;100784.41;;;13.23;73.54
74529;BME280;63009;52.584;5.932;2022-11-09T12:46:19;100781.50;;;13.14;74.21
74529;BME280;63009;52.584;5.932;2022-11-09T12:48:47;100771.63;;;13.16;74.57
74529;BME280;63009;52.584;5.932;2022-11-09T12:51:12;100776.00;;;13.29;74.37
74529;BME280;63009;52.584;5.932;2022-11-09T12:53:39;100777.47;;;13.33;72.85
74529;BME280;63009;52.584;5.932;2022-11-09T12:58:34;100802.78;;;13.63;72.56
74529;BME280;63009;52.584;5.932;2022-11-09T13:01:46;100783.34;;;13.62;71.49
74529;BME280;63009;52.584;5.932;2022-11-09T13:03:53;100799.22;;;13.51;71.96
74529;BME280;63009;52.584;5.932;2022-11-09T13:06:27;100795.28;;;13.44;71.18
74529;BME280;63009;52.584;5.932;2022-11-09T13:09:04;100815.81;;;13.42;72.02
74529;BME280;63009;52.584;5.932;2022-11-09T13:11:39;100811.34;;;13.30;72.49
74529;BME280;63009;52.584;5.932;2022-11-09T13:16:46;100821.41;;;13.12;73.73
74529;BME280;63009;52.584;5.932;2022-11-09T13:22:00;100847.41;;;13.07;74.55
74529;BME280;63009;52.584;5.932;2022-11-09T13:26:59;100843.28;;;13.03;76.74
74529;BME280;63009;52.584;5.932;2022-11-09T13:29:29;100851.00;;;13.06;76.46
74529;BME280;63009;52.584;5.932;2022-11-09T13:32:24;100845.72;;;13.06;76.71
74529;BME280;63009;52.584;5.932;2022-11-09T13:34:53;100851.34;;;13.14;76.16
74529;BME280;63009;52.584;5.932;2022-11-09T13:45:46;100850.72;;;12.98;77.33
74529;BME280;63009;52.584;5.932;2022-11-09T13:51:05;100856.41;;;12.92;78.09
74529;BME280;63009;52.584;5.932;2022-11-09T13:58:39;100861.59;;;12.81;78.85
74529;BME280;63009;52.584;5.932;2022-11-09T14:01:23;100870.50;;;12.79;78.93
74529;BME280;63009;52.584;5.932;2022-11-09T14:03:50;100865.97;;;12.82;79.53
74529;BME280;63009;52.584;5.932;2022-11-09T14:06:17;100872.75;;;12.86;79.18
74529;BME280;63009;52.584;5.932;2022-11-09T14:08:42;100868.41;;;12.85;79.12
74529;BME280;63009;52.584;5.932;2022-11-09T14:11:33;100877.41;;;12.95;78.26
74529;BME280;63009;52.584;5.932;2022-11-09T14:17:21;100876.88;;;12.90;77.90
74529;BME280;63009;52.584;5.932;2022-11-09T14:22:38;100886.88;;;12.86;78.79
74529;BME280;63009;52.584;5.932;2022-11-09T14:25:13;100891.53;;;12.83;78.85